sensor_id;sensor_type;location;lat;lon;timestamp;P1;durP1;ratioP1;P2;durP2;ratioP2
2854;SDS011;1435;49.472;10.940;2022-12-07T00:02:01;7.17;;;6.50;;
2854;SDS011;1435;49.472;10.940;2022-12-07T00:07:03;6.63;;;6.03;;
2854;SDS011;1435;49.472;10.940;2022-12-07T00:12:06;7.27;;;6.20;;
2854;SDS011;1435;49.472;10.940;2022-12-07T00:17:09;7.60;;;6.77;;
2854;SDS011;1435;49.472;10.940;2022-12-07T00:22:10;6.67;;;6.00;;
2854;SDS011;1435;49.472;10.940;2022-12-07T00:27:13;7.67;;;6.97;;
2854;SDS011;1435;49.472;10.940;2022-12-07T00:32:15;7.23;;;6.40;;
2854;SDS011;1435;49.472;10.940;2022-12-07T00:37:17;7.07;;;6.37;;
2854;SDS011;1435;49.472;10.940;2022-12-07T00:42:20;7.30;;;6.70;;
2854;SDS011;1435;49.472;10.940;2022-12-07T00:47:21;7.20;;;6.50;;
2854;SDS011;1435;49.472;10.940;2022-12-07T00:52:23;9.67;;;7.13;;
2854;SDS011;1435;49.472;10.940;2022-12-07T00:57:26;6.97;;;6.27;;
2854;SDS011;1435;49.472;10.940;2022-12-07T01:02:28;7.63;;;6.90;;
2854;SDS011;1435;49.472;10.940;2022-12-07T01:07:30;9.20;;;8.20;;
2854;SDS011;1435;49.472;10.940;2022-12-07T01:12:33;7.33;;;6.60;;
2854;SDS011;1435;49.472;10.940;2022-12-07T01:17:35;10.27;;;7.70;;
2854;SDS011;1435;49.472;10.940;2022-12-07T01:22:36;8.20;;;7.43;;
2854;SDS011;1435;49.472;10.940;2022-12-07T01:27:40;9.13;;;7.77;;
2854;SDS011;1435;49.472;10.940;2022-12-07T01:32:42;7.67;;;6.83;;
2854;SDS011;1435;49.472;10.940;2022-12-07T01:37:43;9.27;;;8.33;;
2854;SDS011;1435;49.472;10.940;2022-12-07T01:42:46;8.70;;;7.80;;
2854;SDS011;1435;49.472;10.940;2022-12-07T01:47:49;7.13;;;6.50;;
2854;SDS011;1435;49.472;10.940;2022-12-07T01:52:53;8.60;;;7.73;;
2854;SDS011;1435;49.472;10.940;2022-12-07T01:57:58;11.53;;;8.07;;
2854;SDS011;1435;49.472;10.940;2022-12-07T02:03:02;8.47;;;7.67;;
2854;SDS011;1435;49.472;10.940;2022-12-07T02:08:07;10.13;;;7.83;;
2854;SDS011;1435;49.472;10.940;2022-12-07T02:13:11;10.87;;;9.00;;
2854;SDS011;1435;49.472;10.940;2022-12-07T02:18:17;10.87;;;8.40;;
2854;SDS011;1435;49.472;10.940;2022-12-07T02:29:08;11.83;;;9.03;;
2854;SDS011;1435;49.472;10.940;2022-12-07T02:34:16;9.33;;;7.83;;
2854;SDS011;1435;49.472;10.940;2022-12-07T02:39:25;11.23;;;8.57;;
2854;SDS011;1435;49.472;10.940;2022-12-07T02:44:33;10.97;;;9.60;;
2854;SDS011;1435;49.472;10.940;2022-12-07T02:49:35;10.63;;;9.17;;
2854;SDS011;1435;49.472;10.940;2022-12-07T02:54:39;12.90;;;9.70;;
2854;SDS011;1435;49.472;10.940;2022-12-07T02:59:44;11.30;;;8.83;;
2854;SDS011;1435;49.472;10.940;2022-12-07T03:05:03;12.83;;;9.63;;
2854;SDS011;1435;49.472;10.940;2022-12-07T03:10:14;9.60;;;8.60;;
2854;SDS011;1435;49.472;10.940;2022-12-07T03:15:26;10.33;;;8.23;;
2854;SDS011;1435;49.472;10.940;2022-12-07T03:20:33;12.30;;;9.60;;
2854;SDS011;1435;49.472;10.940;2022-12-07T03:25:38;12.27;;;9.40;;
2854;SDS011;1435;49.472;10.940;2022-12-07T03:30:45;11.40;;;9.60;;
2854;SDS011;1435;49.472;10.940;2022-12-07T03:35:52;11.20;;;10.00;;
2854;SDS011;1435;49.472;10.940;2022-12-07T03:41:01;11.13;;;9.33;;
2854;SDS011;1435;49.472;10.940;2022-12-07T03:46:18;9.57;;;8.47;;
2854;SDS011;1435;49.472;10.940;2022-12-07T03:51:25;12.00;;;8.73;;
2854;SDS011;1435;49.472;10.940;2022-12-07T03:56:31;12.50;;;9.30;;
2854;SDS011;1435;49.472;10.940;2022-12-07T04:01:35;13.87;;;9.40;;
2854;SDS011;1435;49.472;10.940;2022-12-07T04:06:37;10.70;;;8.37;;
2854;SDS011;1435;49.472;10.940;2022-12-07T04:11:39;12.53;;;9.87;;
2854;SDS011;1435;49.472;10.940;2022-12-07T04:16:42;10.77;;;8.30;;
2854;SDS011;1435;49.472;10.940;2022-12-07T04:21:44;9.53;;;8.50;;
2854;SDS011;1435;49.472;10.940;2022-12-07T04:26:46;12.00;;;8.53;;
2854;SDS011;1435;49.472;10.940;2022-12-07T04:31:50;13.33;;;10.40;;
2854;SDS011;1435;49.472;10.940;2022-12-07T04:36:52;13.40;;;9.70;;
2854;SDS011;1435;49.472;10.940;2022-12-07T04:41:54;11.13;;;9.10;;
2854;SDS011;1435;49.472;10.940;2022-12-07T04:46:58;15.10;;;10.40;;
2854;SDS011;1435;49.472;10.940;2022-12-07T04:51:59;12.13;;;9.57;;
2854;SDS011;1435;49.472;10.940;2022-12-07T04:57:01;13.80;;;10.10;;
2854;SDS011;1435;49.472;10.940;2022-12-07T05:02:05;17.00;;;11.13;;
2854;SDS011;1435;49.472;10.940;2022-12-07T05:07:06;11.77;;;9.67;;
2854;SDS011;1435;49.472;10.940;2022-12-07T05:12:08;11.67;;;10.17;;
2854;SDS011;1435;49.472;10.940;2022-12-07T05:17:11;13.97;;;10.77;;
2854;SDS011;1435;49.472;10.940;2022-12-07T05:22:13;15.57;;;11.30;;
2854;SDS011;1435;49.472;10.940;2022-12-07T05:27:15;17.73;;;11.90;;
2854;SDS011;1435;49.472;10.940;2022-12-07T05:32:18;18.57;;;11.83;;
2854;SDS011;1435;49.472;10.940;2022-12-07T05:37:20;14.70;;;11.70;;
2854;SDS011;1435;49.472;10.940;2022-12-07T05:42:22;16.03;;;12.30;;
2854;SDS011;1435;49.472;10.940;2022-12-07T05:47:26;18.60;;;12.70;;
2854;SDS011;1435;49.472;10.940;2022-12-07T05:52:28;16.53;;;11.70;;
2854;SDS011;1435;49.472;10.940;2022-12-07T05:57:30;16.40;;;12.10;;
2854;SDS011;1435;49.472;10.940;2022-12-07T06:02:33;16.10;;;12.20;;
2854;SDS011;1435;49.472;10.940;2022-12-07T06:07:34;15.90;;;11.60;;
2854;SDS011;1435;49.472;10.940;2022-12-07T06:12:36;16.00;;;12.07;;
2854;SDS011;1435;49.472;10.940;2022-12-07T06:17:40;17.80;;;12.00;;
2854;SDS011;1435;49.472;10.940;2022-12-07T06:22:42;22.80;;;13.30;;
2854;SDS011;1435;49.472;10.940;2022-12-07T06:27:44;16.43;;;11.53;;
2854;SDS011;1435;49.472;10.940;2022-12-07T06:32:47;17.37;;;12.00;;
2854;SDS011;1435;49.472;10.940;2022-12-07T06:37:49;15.90;;;12.33;;
2854;SDS011;1435;49.472;10.940;2022-12-07T06:42:50;15.53;;;11.27;;
2854;SDS011;1435;49.472;10.940;2022-12-07T06:47:53;14.87;;;11.40;;
2854;SDS011;1435;49.472;10.940;2022-12-07T06:52:55;13.50;;;10.90;;
2854;SDS011;1435;49.472;10.940;2022-12-07T06:57:57;14.50;;;11.03;;
2854;SDS011;1435;49.472;10.940;2022-12-07T07:03:00;17.57;;;11.33;;
2854;SDS011;1435;49.472;10.940;2022-12-07T07:08:02;14.87;;;10.07;;
2854;SDS011;1435;49.472;10.940;2022-12-07T07:13:04;16.83;;;10.73;;
2854;SDS011;1435;49.472;10.940;2022-12-07T07:18:08;17.27;;;12.30;;
2854;SDS011;1435;49.472;10.940;2022-12-07T07:23:09;16.77;;;12.50;;
2854;SDS011;1435;49.472;10.940;2022-12-07T07:28:11;18.70;;;13.40;;
2854;SDS011;1435;49.472;10.940;2022-12-07T07:33:15;19.33;;;12.40;;
2854;SDS011;1435;49.472;10.940;2022-12-07T07:38:17;15.20;;;11.97;;
2854;SDS011;1435;49.472;10.940;2022-12-07T07:43:18;19.40;;;12.90;;
2854;SDS011;1435;49.472;10.940;2022-12-07T07:48:21;14.53;;;11.70;;
2854;SDS011;1435;49.472;10.940;2022-12-07T07:53:25;19.10;;;13.80;;
2854;SDS011;1435;49.472;10.940;2022-12-07T07:58:27;21.43;;;12.67;;
2854;SDS011;1435;49.472;10.940;2022-12-07T08:03:30;19.53;;;12.50;;
2854;SDS011;1435;49.472;10.940;2022-12-07T08:08:32;18.87;;;12.17;;
2854;SDS011;1435;49.472;10.940;2022-12-07T08:13:33;16.83;;;11.20;;
2854;SDS011;1435;49.472;10.940;2022-12-07T08:18:37;14.70;;;12.03;;
2854;SDS011;1435;49.472;10.940;2022-12-07T08:23:40;16.17;;;11.27;;
2854;SDS011;1435;49.472;10.940;2022-12-07T08:28:43;16.60;;;11.00;;
2854;SDS011;1435;49.472;10.940;2022-12-07T08:33:47;13.13;;;9.93;;
2854;SDS011;1435;49.472;10.940;2022-12-07T08:38:49;12.00;;;9.37;;
2854;SDS011;1435;49.472;10.940;2022-12-07T08:43:51;16.57;;;11.30;;
2854;SDS011;1435;49.472;10.940;2022-12-07T08:48:55;14.67;;;9.90;;
2854;SDS011;1435;49.472;10.940;2022-12-07T08:54:00;13.10;;;9.50;;
2854;SDS011;1435;49.472;10.940;2022-12-07T08:59:05;15.27;;;10.40;;
2854;SDS011;1435;49.472;10.940;2022-12-07T09:04:09;12.07;;;10.37;;
2854;SDS011;1435;49.472;10.940;2022-12-07T09:09:11;11.47;;;8.93;;
2854;SDS011;1435;49.472;10.940;2022-12-07T09:14:14;12.47;;;8.47;;
2854;SDS011;1435;49.472;10.940;2022-12-07T09:19:18;12.67;;;10.03;;
2854;SDS011;1435;49.472;10.940;2022-12-07T09:24:20;14.70;;;10.00;;
2854;SDS011;1435;49.472;10.940;2022-12-07T09:29:22;14.27;;;9.20;;
2854;SDS011;1435;49.472;10.940;2022-12-07T09:34:26;12.03;;;8.73;;
2854;SDS011;1435;49.472;10.940;2022-12-07T09:39:28;11.50;;;9.07;;
2854;SDS011;1435;49.472;10.940;2022-12-07T09:44:29;14.87;;;9.87;;
2854;SDS011;1435;49.472;10.940;2022-12-07T09:49:33;11.63;;;9.23;;
2854;SDS011;1435;49.472;10.940;2022-12-07T09:54:35;12.80;;;9.30;;
2854;SDS011;1435;49.472;10.940;2022-12-07T09:59:40;13.70;;;9.27;;
2854;SDS011;1435;49.472;10.940;2022-12-07T10:04:44;13.70;;;8.97;;
2854;SDS011;1435;49.472;10.940;2022-12-07T10:09:46;11.17;;;9.53;;
2854;SDS011;1435;49.472;10.940;2022-12-07T10:14:55;11.47;;;8.00;;
2854;SDS011;1435;49.472;10.940;2022-12-07T10:20:15;10.80;;;8.33;;
2854;SDS011;1435;49.472;10.940;2022-12-07T10:25:21;11.23;;;9.33;;
2854;SDS011;1435;49.472;10.940;2022-12-07T10:30:26;12.83;;;11.00;;
2854;SDS011;1435;49.472;10.940;2022-12-07T10:35:29;14.67;;;9.07;;
2854;SDS011;1435;49.472;10.940;2022-12-07T10:40:32;11.80;;;8.80;;
2854;SDS011;1435;49.472;10.940;2022-12-07T10:45:35;10.30;;;8.20;;
2854;SDS011;1435;49.472;10.940;2022-12-07T10:50:54;11.53;;;8.47;;
2854;SDS011;1435;49.472;10.940;2022-12-07T10:56:09;10.73;;;8.60;;
2854;SDS011;1435;49.472;10.940;2022-12-07T11:01:36;12.07;;;9.17;;
2854;SDS011;1435;49.472;10.940;2022-12-07T11:06:50;11.33;;;8.70;;
2854;SDS011;1435;49.472;10.940;2022-12-07T11:11:56;15.80;;;10.63;;
2854;SDS011;1435;49.472;10.940;2022-12-07T11:17:07;12.80;;;8.40;;
2854;SDS011;1435;49.472;10.940;2022-12-07T11:22:18;10.40;;;8.27;;
2854;SDS011;1435;49.472;10.940;2022-12-07T11:27:27;11.47;;;8.90;;
2854;SDS011;1435;49.472;10.940;2022-12-07T11:32:40;11.67;;;8.40;;
2854;SDS011;1435;49.472;10.940;2022-12-07T11:37:59;14.03;;;9.60;;
2854;SDS011;1435;49.472;10.940;2022-12-07T11:43:11;11.67;;;9.20;;
2854;SDS011;1435;49.472;10.940;2022-12-07T11:48:20;9.57;;;8.30;;
2854;SDS011;1435;49.472;10.940;2022-12-07T11:53:27;11.57;;;8.30;;
2854;SDS011;1435;49.472;10.940;2022-12-07T11:58:40;10.77;;;8.90;;
2854;SDS011;1435;49.472;10.940;2022-12-07T12:03:49;12.40;;;8.33;;
2854;SDS011;1435;49.472;10.940;2022-12-07T12:08:55;11.40;;;9.73;;
2854;SDS011;1435;49.472;10.940;2022-12-07T12:14:10;13.07;;;9.50;;
2854;SDS011;1435;49.472;10.940;2022-12-07T12:19:25;13.93;;;8.67;;
2854;SDS011;1435;49.472;10.940;2022-12-07T12:24:35;10.80;;;9.30;;
2854;SDS011;1435;49.472;10.940;2022-12-07T12:29:39;10.87;;;8.67;;
2854;SDS011;1435;49.472;10.940;2022-12-07T12:35:01;10.73;;;8.17;;
2854;SDS011;1435;49.472;10.940;2022-12-07T12:51:36;12.40;;;8.30;;
2854;SDS011;1435;49.472;10.940;2022-12-07T12:56:40;11.87;;;8.20;;
2854;SDS011;1435;49.472;10.940;2022-12-07T13:01:50;16.93;;;7.87;;
2854;SDS011;1435;49.472;10.940;2022-12-07T13:06:54;8.97;;;7.13;;
2854;SDS011;1435;49.472;10.940;2022-12-07T13:11:59;9.23;;;7.73;;
2854;SDS011;1435;49.472;10.940;2022-12-07T13:17:03;12.20;;;8.93;;
2854;SDS011;1435;49.472;10.940;2022-12-07T13:27:44;13.83;;;8.87;;
2854;SDS011;1435;49.472;10.940;2022-12-07T13:32:53;9.70;;;7.80;;
2854;SDS011;1435;49.472;10.940;2022-12-07T13:37:57;10.03;;;7.70;;
2854;SDS011;1435;49.472;10.940;2022-12-07T13:43:00;9.10;;;8.30;;
2854;SDS011;1435;49.472;10.940;2022-12-07T13:48:04;10.27;;;7.60;;
2854;SDS011;1435;49.472;10.940;2022-12-07T13:53:07;11.00;;;8.10;;
2854;SDS011;1435;49.472;10.940;2022-12-07T13:58:15;9.80;;;8.17;;
2854;SDS011;1435;49.472;10.940;2022-12-07T14:03:28;8.70;;;7.80;;
2854;SDS011;1435;49.472;10.940;2022-12-07T14:08:32;10.17;;;8.30;;
2854;SDS011;1435;49.472;10.940;2022-12-07T14:13:36;12.73;;;9.37;;
2854;SDS011;1435;49.472;10.940;2022-12-07T14:18:40;8.57;;;6.97;;
2854;SDS011;1435;49.472;10.940;2022-12-07T14:23:42;11.47;;;8.70;;
2854;SDS011;1435;49.472;10.940;2022-12-07T14:28:46;10.03;;;7.60;;
2854;SDS011;1435;49.472;10.940;2022-12-07T14:33:48;10.33;;;7.10;;
2854;SDS011;1435;49.472;10.940;2022-12-07T14:38:50;10.83;;;7.43;;
2854;SDS011;1435;49.472;10.940;2022-12-07T14:43:55;12.60;;;9.70;;
2854;SDS011;1435;49.472;10.940;2022-12-07T14:48:57;12.60;;;11.40;;
2854;SDS011;1435;49.472;10.940;2022-12-07T14:53:59;9.53;;;8.10;;
2854;SDS011;1435;49.472;10.940;2022-12-07T14:59:02;11.77;;;7.33;;
2854;SDS011;1435;49.472;10.940;2022-12-07T15:04:04;8.53;;;7.67;;
2854;SDS011;1435;49.472;10.940;2022-12-07T15:09:06;11.13;;;9.23;;
2854;SDS011;1435;49.472;10.940;2022-12-07T15:14:09;10.57;;;8.23;;
2854;SDS011;1435;49.472;10.940;2022-12-07T15:19:13;11.20;;;9.27;;
2854;SDS011;1435;49.472;10.940;2022-12-07T15:24:16;10.33;;;9.00;;
2854;SDS011;1435;49.472;10.940;2022-12-07T15:29:19;13.53;;;9.13;;
2854;SDS011;1435;49.472;10.940;2022-12-07T15:34:21;11.13;;;9.33;;
2854;SDS011;1435;49.472;10.940;2022-12-07T15:39:24;11.53;;;8.43;;
2854;SDS011;1435;49.472;10.940;2022-12-07T15:44:27;9.87;;;8.83;;
2854;SDS011;1435;49.472;10.940;2022-12-07T15:49:46;13.53;;;9.53;;
2854;SDS011;1435;49.472;10.940;2022-12-07T15:54:48;11.13;;;8.50;;
2854;SDS011;1435;49.472;10.940;2022-12-07T15:59:51;10.80;;;9.10;;
2854;SDS011;1435;49.472;10.940;2022-12-07T16:04:53;16.10;;;10.40;;
2854;SDS011;1435;49.472;10.940;2022-12-07T16:09:54;14.07;;;10.30;;
2854;SDS011;1435;49.472;10.940;2022-12-07T16:14:57;12.53;;;9.03;;
2854;SDS011;1435;49.472;10.940;2022-12-07T16:19:59;12.80;;;9.73;;
2854;SDS011;1435;49.472;10.940;2022-12-07T16:25:02;12.50;;;9.03;;
2854;SDS011;1435;49.472;10.940;2022-12-07T16:30:06;10.10;;;9.00;;
2854;SDS011;1435;49.472;10.940;2022-12-07T16:35:09;16.10;;;10.97;;
2854;SDS011;1435;49.472;10.940;2022-12-07T16:40:11;14.03;;;10.70;;
2854;SDS011;1435;49.472;10.940;2022-12-07T16:45:15;13.43;;;10.17;;
2854;SDS011;1435;49.472;10.940;2022-12-07T16:50:16;10.73;;;9.00;;
2854;SDS011;1435;49.472;10.940;2022-12-07T16:55:18;12.23;;;9.00;;
2854;SDS011;1435;49.472;10.940;2022-12-07T17:00:21;15.37;;;11.10;;
2854;SDS011;1435;49.472;10.940;2022-12-07T17:05:23;14.90;;;10.13;;
2854;SDS011;1435;49.472;10.940;2022-12-07T17:10:27;13.83;;;11.70;;
2854;SDS011;1435;49.472;10.940;2022-12-07T17:15:31;14.73;;;10.27;;
2854;SDS011;1435;49.472;10.940;2022-12-07T17:20:32;15.00;;;11.10;;
2854;SDS011;1435;49.472;10.940;2022-12-07T17:25:34;17.87;;;12.57;;
2854;SDS011;1435;49.472;10.940;2022-12-07T17:30:38;15.53;;;11.20;;
2854;SDS011;1435;49.472;10.940;2022-12-07T17:35:40;13.67;;;11.67;;
2854;SDS011;1435;49.472;10.940;2022-12-07T17:40:42;20.33;;;12.90;;
2854;SDS011;1435;49.472;10.940;2022-12-07T17:45:45;15.77;;;9.97;;
2854;SDS011;1435;49.472;10.940;2022-12-07T17:50:46;12.43;;;10.57;;
2854;SDS011;1435;49.472;10.940;2022-12-07T17:56:06;14.30;;;11.37;;
2854;SDS011;1435;49.472;10.940;2022-12-07T18:01:09;13.00;;;10.73;;
2854;SDS011;1435;49.472;10.940;2022-12-07T18:06:11;12.30;;;9.07;;
2854;SDS011;1435;49.472;10.940;2022-12-07T18:11:13;14.73;;;11.20;;
2854;SDS011;1435;49.472;10.940;2022-12-07T18:16:17;14.27;;;11.40;;
2854;SDS011;1435;49.472;10.940;2022-12-07T18:21:21;16.23;;;12.07;;
2854;SDS011;1435;49.472;10.940;2022-12-07T18:26:24;15.03;;;10.20;;
2854;SDS011;1435;49.472;10.940;2022-12-07T18:31:27;12.23;;;10.93;;
2854;SDS011;1435;49.472;10.940;2022-12-07T18:36:29;13.00;;;10.80;;
2854;SDS011;1435;49.472;10.940;2022-12-07T18:41:31;14.97;;;11.17;;
2854;SDS011;1435;49.472;10.940;2022-12-07T18:46:35;13.67;;;10.30;;
2854;SDS011;1435;49.472;10.940;2022-12-07T18:51:37;15.13;;;11.80;;
2854;SDS011;1435;49.472;10.940;2022-12-07T18:56:39;15.90;;;12.13;;
2854;SDS011;1435;49.472;10.940;2022-12-07T19:01:42;13.83;;;12.00;;
2854;SDS011;1435;49.472;10.940;2022-12-07T19:06:47;15.97;;;11.47;;
2854;SDS011;1435;49.472;10.940;2022-12-07T19:11:49;15.47;;;11.97;;
2854;SDS011;1435;49.472;10.940;2022-12-07T19:16:53;14.33;;;11.27;;
2854;SDS011;1435;49.472;10.940;2022-12-07T19:21:56;12.00;;;10.80;;
2854;SDS011;1435;49.472;10.940;2022-12-07T19:26:58;17.33;;;12.17;;
2854;SDS011;1435;49.472;10.940;2022-12-07T19:32:02;14.00;;;12.23;;
2854;SDS011;1435;49.472;10.940;2022-12-07T19:37:07;13.57;;;11.57;;
2854;SDS011;1435;49.472;10.940;2022-12-07T19:42:10;15.70;;;12.53;;
2854;SDS011;1435;49.472;10.940;2022-12-07T19:47:14;17.90;;;12.63;;
2854;SDS011;1435;49.472;10.940;2022-12-07T19:52:16;14.00;;;10.97;;
2854;SDS011;1435;49.472;10.940;2022-12-07T19:57:18;16.10;;;11.33;;
2854;SDS011;1435;49.472;10.940;2022-12-07T20:02:21;15.50;;;12.77;;
2854;SDS011;1435;49.472;10.940;2022-12-07T20:07:23;16.57;;;13.10;;
2854;SDS011;1435;49.472;10.940;2022-12-07T20:12:24;15.13;;;12.27;;
2854;SDS011;1435;49.472;10.940;2022-12-07T20:17:45;17.03;;;12.80;;
2854;SDS011;1435;49.472;10.940;2022-12-07T20:22:47;16.70;;;14.13;;
2854;SDS011;1435;49.472;10.940;2022-12-07T20:27:48;15.63;;;11.50;;
2854;SDS011;1435;49.472;10.940;2022-12-07T20:32:52;16.93;;;11.83;;
2854;SDS011;1435;49.472;10.940;2022-12-07T20:37:53;13.53;;;11.60;;
2854;SDS011;1435;49.472;10.940;2022-12-07T20:42:55;16.07;;;12.67;;
2854;SDS011;1435;49.472;10.940;2022-12-07T20:47:58;17.00;;;13.40;;
2854;SDS011;1435;49.472;10.940;2022-12-07T20:53:00;18.10;;;14.67;;
2854;SDS011;1435;49.472;10.940;2022-12-07T20:58:02;20.23;;;14.87;;
2854;SDS011;1435;49.472;10.940;2022-12-07T21:03:05;17.47;;;12.87;;
2854;SDS011;1435;49.472;10.940;2022-12-07T21:08:07;21.13;;;13.23;;
2854;SDS011;1435;49.472;10.940;2022-12-07T21:13:08;20.10;;;13.20;;
2854;SDS011;1435;49.472;10.940;2022-12-07T21:18:11;15.13;;;12.37;;
2854;SDS011;1435;49.472;10.940;2022-12-07T21:23:13;18.70;;;13.97;;
2854;SDS011;1435;49.472;10.940;2022-12-07T21:28:15;21.27;;;14.00;;
2854;SDS011;1435;49.472;10.940;2022-12-07T21:33:18;19.07;;;14.37;;
2854;SDS011;1435;49.472;10.940;2022-12-07T21:38:19;16.43;;;13.77;;
2854;SDS011;1435;49.472;10.940;2022-12-07T21:43:21;18.63;;;12.73;;
2854;SDS011;1435;49.472;10.940;2022-12-07T21:48:25;15.73;;;13.37;;
2854;SDS011;1435;49.472;10.940;2022-12-07T21:53:26;16.20;;;13.70;;
2854;SDS011;1435;49.472;10.940;2022-12-07T21:58:28;20.73;;;12.83;;
2854;SDS011;1435;49.472;10.940;2022-12-07T22:03:31;16.43;;;12.23;;
2854;SDS011;1435;49.472;10.940;2022-12-07T22:08:33;18.37;;;13.27;;
2854;SDS011;1435;49.472;10.940;2022-12-07T22:13:35;17.60;;;12.63;;
2854;SDS011;1435;49.472;10.940;2022-12-07T22:18:56;19.17;;;12.83;;
2854;SDS011;1435;49.472;10.940;2022-12-07T22:23:58;20.60;;;12.03;;
2854;SDS011;1435;49.472;10.940;2022-12-07T22:28:59;17.87;;;12.50;;
2854;SDS011;1435;49.472;10.940;2022-12-07T22:34:03;15.80;;;13.17;;
2854;SDS011;1435;49.472;10.940;2022-12-07T22:39:05;16.10;;;11.90;;
2854;SDS011;1435;49.472;10.940;2022-12-07T22:44:07;15.90;;;11.70;;
2854;SDS011;1435;49.472;10.940;2022-12-07T22:49:10;15.27;;;12.67;;
2854;SDS011;1435;49.472;10.940;2022-12-07T22:54:13;15.10;;;11.80;;
2854;SDS011;1435;49.472;10.940;2022-12-07T22:59:15;17.10;;;12.13;;
2854;SDS011;1435;49.472;10.940;2022-12-07T23:04:18;15.30;;;11.53;;
2854;SDS011;1435;49.472;10.940;2022-12-07T23:09:20;14.63;;;12.50;;
2854;SDS011;1435;49.472;10.940;2022-12-07T23:14:23;15.60;;;11.33;;
2854;SDS011;1435;49.472;10.940;2022-12-07T23:19:29;20.10;;;13.40;;
2854;SDS011;1435;49.472;10.940;2022-12-07T23:24:31;18.47;;;12.60;;
2854;SDS011;1435;49.472;10.940;2022-12-07T23:29:33;15.67;;;12.40;;
2854;SDS011;1435;49.472;10.940;2022-12-07T23:34:36;14.07;;;12.03;;
2854;SDS011;1435;49.472;10.940;2022-12-07T23:39:38;17.73;;;12.97;;
2854;SDS011;1435;49.472;10.940;2022-12-07T23:44:40;19.50;;;14.00;;
2854;SDS011;1435;49.472;10.940;2022-12-07T23:49:43;16.47;;;12.13;;
2854;SDS011;1435;49.472;10.940;2022-12-07T23:54:44;15.07;;;12.17;;
2854;SDS011;1435;49.472;10.940;2022-12-07T23:59:46;21.77;;;13.63;;
